createdAt,value
2022-10-03T00:10:54.135Z,15.50
2022-10-03T00:16:39.093Z,15.50
2022-10-03T00:22:09.394Z,15.50
2022-10-03T00:27:41.615Z,15.50
2022-10-03T00:33:14.542Z,15.60
2022-10-03T00:38:50.686Z,15.60
2022-10-03T00:50:31.395Z,15.50
2022-10-03T01:07:09.223Z,15.50
2022-10-03T01:12:46.688Z,15.50
2022-10-03T01:18:09.797Z,15.50
2022-10-03T01:24:07.119Z,15.50
2022-10-03T01:29:47.565Z,15.50
2022-10-03T01:35:36.553Z,15.50
2022-10-03T01:41:02.461Z,15.50
2022-10-03T01:46:55.949Z,15.50
2022-10-03T01:52:33.133Z,15.50
2022-10-03T01:57:38.234Z,15.50
2022-10-03T02:03:03.802Z,15.50
2022-10-03T02:08:52.179Z,15.50
2022-10-03T02:14:13.414Z,15.40
2022-10-03T02:19:31.470Z,15.40
2022-10-03T02:24:37.139Z,15.40
2022-10-03T02:30:04.363Z,15.40
2022-10-03T02:35:44.950Z,15.40
2022-10-03T02:41:14.100Z,15.20
2022-10-03T02:46:47.266Z,15.20
2022-10-03T02:51:55.965Z,15.20
2022-10-03T02:57:29.917Z,15.10
2022-10-03T03:02:56.172Z,15.10
2022-10-03T03:08:25.164Z,15.00
2022-10-03T03:14:02.646Z,14.90
2022-10-03T03:19:25.916Z,14.70
2022-10-03T03:24:48.709Z,14.70
2022-10-03T03:30:02.582Z,14.70
2022-10-03T03:41:14.472Z,14.80
2022-10-03T03:46:57.718Z,14.80
2022-10-03T03:52:48.037Z,14.80
2022-10-03T03:58:40.683Z,14.90
2022-10-03T04:04:06.318Z,14.90
2022-10-03T04:09:37.961Z,15.00
2022-10-03T04:15:41.652Z,14.90
2022-10-03T04:21:26.023Z,15.00
2022-10-03T04:27:22.289Z,15.00
2022-10-03T04:32:52.618Z,15.00
2022-10-03T04:38:35.070Z,15.00
2022-10-03T04:44:53.821Z,15.00
2022-10-03T04:50:03.430Z,15.00
2022-10-03T04:55:28.225Z,15.00
2022-10-03T05:01:05.527Z,15.10
2022-10-03T05:06:57.068Z,15.00
2022-10-03T05:12:57.519Z,15.00
2022-10-03T05:18:57.181Z,15.00
2022-10-03T05:24:53.651Z,15.00
2022-10-03T05:30:51.400Z,15.00
2022-10-03T05:36:57.729Z,15.00
2022-10-03T05:42:27.211Z,15.10
2022-10-03T05:54:25.652Z,15.10
2022-10-03T06:05:48.288Z,15.10
2022-10-03T06:11:30.325Z,15.10
2022-10-03T06:17:38.647Z,15.10
2022-10-03T06:23:29.758Z,15.10
2022-10-03T06:29:11.634Z,15.10
2022-10-03T06:35:00.163Z,15.20
2022-10-03T06:40:50.233Z,15.20
2022-10-03T06:46:30.317Z,15.20
2022-10-03T06:52:09.055Z,15.30
2022-10-03T06:57:40.542Z,15.30
2022-10-03T07:03:17.113Z,15.40
2022-10-03T07:09:05.610Z,15.40
2022-10-03T07:15:50.163Z,15.40
2022-10-03T07:21:19.531Z,15.40
2022-10-03T07:26:43.195Z,15.40
2022-10-03T07:32:06.308Z,15.30
2022-10-03T07:38:26.993Z,15.20
2022-10-03T07:44:08.040Z,15.10
2022-10-03T07:49:49.265Z,15.10
2022-10-03T07:55:43.643Z,15.10
2022-10-03T08:01:08.758Z,15.10
2022-10-03T08:06:25.638Z,15.10
2022-10-03T08:17:42.277Z,15.30
2022-10-03T08:22:54.884Z,15.30
2022-10-03T08:28:23.657Z,15.30
2022-10-03T08:34:05.791Z,15.30
2022-10-03T08:39:38.943Z,15.30
2022-10-03T08:44:50.162Z,15.50
2022-10-03T08:50:25.852Z,15.80
2022-10-03T08:55:49.725Z,16.00
2022-10-03T09:01:23.584Z,16.50
2022-10-03T09:07:18.993Z,17.40
2022-10-03T09:12:34.953Z,17.90
2022-10-03T09:18:05.365Z,18.20
2022-10-03T09:24:05.916Z,18.10
2022-10-03T09:29:31.177Z,17.80
2022-10-03T09:34:48.068Z,17.80
2022-10-03T09:40:10.991Z,18.40
2022-10-03T09:45:39.259Z,19.30
2022-10-03T09:51:06.609Z,19.90
2022-10-03T09:56:39.655Z,20.00
2022-10-03T10:02:03.150Z,19.80
2022-10-03T10:07:15.329Z,19.00
2022-10-03T10:12:38.999Z,18.70
2022-10-03T10:18:12.483Z,18.50
2022-10-03T10:23:53.682Z,18.60
2022-10-03T10:29:18.460Z,18.70
2022-10-03T10:34:23.593Z,18.20
2022-10-03T10:39:40.955Z,18.10
2022-10-03T10:45:07.533Z,18.40
2022-10-03T10:50:24.664Z,18.50
2022-10-03T10:56:06.341Z,18.70
2022-10-03T11:01:23.694Z,19.10
2022-10-03T11:06:53.636Z,19.30
2022-10-03T11:12:30.197Z,19.20
2022-10-03T11:18:03.490Z,19.20
2022-10-03T11:23:20.478Z,19.30
2022-10-03T11:28:41.449Z,19.60
2022-10-03T11:33:52.376Z,20.20
2022-10-03T11:39:08.896Z,20.00
2022-10-03T11:44:25.578Z,20.00
2022-10-03T11:50:13.779Z,19.80
2022-10-03T11:55:39.433Z,20.00
2022-10-03T12:00:44.244Z,19.40
2022-10-03T12:06:46.967Z,19.40
2022-10-03T12:12:03.145Z,19.90
2022-10-03T12:17:20.562Z,19.90
2022-10-03T12:22:55.660Z,19.70
2022-10-03T12:28:26.694Z,19.90
2022-10-03T12:34:08.957Z,19.60
2022-10-03T12:40:01.488Z,19.40
2022-10-03T12:45:52.476Z,19.30
2022-10-03T12:58:40.254Z,19.60
2022-10-03T13:04:20.611Z,19.90
2022-10-03T13:09:38.643Z,20.10
2022-10-03T13:15:21.155Z,20.00
2022-10-03T13:20:41.698Z,20.20
2022-10-03T13:26:18.120Z,20.30
2022-10-03T13:31:33.418Z,20.30
2022-10-03T13:36:53.783Z,20.30
2022-10-03T13:42:16.594Z,20.20
2022-10-03T13:47:47.735Z,20.10
2022-10-03T13:53:31.254Z,20.20
2022-10-03T13:58:57.760Z,20.20
2022-10-03T14:04:35.339Z,20.20
2022-10-03T14:10:20.161Z,20.00
2022-10-03T14:15:44.652Z,20.10
2022-10-03T14:21:25.492Z,20.10
2022-10-03T14:27:03.305Z,20.10
2022-10-03T14:32:48.001Z,19.90
2022-10-03T14:39:06.134Z,19.80
2022-10-03T14:44:54.785Z,19.50
2022-10-03T14:55:39.405Z,19.40
2022-10-03T15:12:40.571Z,19.10
2022-10-03T15:18:32.805Z,18.90
2022-10-03T15:24:32.873Z,18.90
2022-10-03T15:36:55.659Z,18.80
2022-10-03T15:53:53.859Z,18.20
2022-10-03T15:59:32.644Z,18.00
2022-10-03T16:04:38.514Z,17.80
2022-10-03T16:10:20.807Z,17.60
2022-10-03T16:15:50.549Z,17.30
2022-10-03T16:21:03.130Z,17.30
2022-10-03T16:26:19.210Z,17.10
2022-10-03T16:31:35.248Z,17.10
2022-10-03T16:37:11.950Z,17.10
2022-10-03T16:42:35.704Z,17.00
2022-10-03T16:47:42.044Z,17.00
2022-10-03T16:52:57.190Z,17.00
2022-10-03T16:58:49.517Z,17.00
2022-10-03T17:04:34.736Z,17.00
2022-10-03T17:09:48.759Z,17.00
2022-10-03T17:15:21.119Z,16.90
2022-10-03T17:26:53.132Z,16.80
2022-10-03T17:32:53.355Z,16.80
2022-10-03T17:39:05.730Z,16.80
2022-10-03T17:50:30.690Z,16.60
2022-10-03T17:55:52.414Z,16.60
2022-10-03T18:01:22.759Z,16.50
2022-10-03T18:12:47.869Z,16.40
2022-10-03T18:18:29.624Z,16.30
2022-10-03T18:23:56.220Z,16.20
2022-10-03T18:29:19.524Z,16.20
2022-10-03T18:34:45.588Z,16.20
2022-10-03T18:39:54.658Z,16.10
2022-10-03T18:45:22.922Z,16.10
2022-10-03T18:51:35.216Z,16.10
2022-10-03T18:56:43.217Z,16.10
2022-10-03T19:02:09.793Z,16.10
2022-10-03T19:07:47.176Z,16.00
2022-10-03T19:13:14.317Z,16.00
2022-10-03T19:18:37.467Z,16.00
2022-10-03T19:24:14.982Z,16.00
2022-10-03T19:29:36.726Z,16.00
2022-10-03T19:34:57.939Z,16.00
2022-10-03T19:40:04.930Z,16.00
2022-10-03T19:45:19.462Z,15.90
2022-10-03T19:56:23.005Z,15.90
2022-10-03T20:01:36.658Z,15.90
2022-10-03T20:06:50.698Z,15.90
2022-10-03T20:12:16.784Z,16.00
2022-10-03T20:17:26.585Z,15.90
2022-10-03T20:22:36.991Z,15.90
2022-10-03T20:28:04.649Z,15.90
2022-10-03T20:33:47.395Z,15.90
2022-10-03T20:38:57.779Z,16.00
2022-10-03T20:44:34.663Z,16.00
2022-10-03T20:49:43.732Z,15.90
2022-10-03T20:55:31.463Z,15.90
2022-10-03T21:00:58.150Z,15.90
2022-10-03T21:06:04.628Z,15.90
2022-10-03T21:11:28.503Z,15.80
2022-10-03T21:17:07.353Z,15.80
2022-10-03T21:22:27.899Z,15.80
2022-10-03T21:27:55.273Z,15.80
2022-10-03T21:33:43.281Z,15.90
2022-10-03T21:39:06.001Z,15.90
2022-10-03T21:44:50.882Z,15.90
2022-10-03T21:50:10.237Z,15.90
2022-10-03T22:01:36.654Z,15.90
2022-10-03T22:07:05.372Z,15.90
2022-10-03T22:12:11.465Z,15.90
2022-10-03T22:17:51.007Z,15.90
2022-10-03T22:23:20.037Z,15.90
2022-10-03T22:28:59.810Z,15.90
2022-10-03T22:34:48.853Z,15.90
2022-10-03T22:40:19.482Z,15.90
2022-10-03T22:46:10.529Z,15.90
2022-10-03T22:51:26.512Z,15.90
2022-10-03T22:56:53.677Z,15.90
2022-10-03T23:02:01.002Z,15.90
2022-10-03T23:08:08.416Z,15.90
2022-10-03T23:19:54.466Z,15.90
2022-10-03T23:25:08.017Z,15.90
2022-10-03T23:30:22.274Z,15.80
2022-10-03T23:36:02.911Z,15.80
2022-10-03T23:41:44.672Z,15.80
2022-10-03T23:47:05.162Z,15.80
2022-10-03T23:52:15.859Z,15.70
2022-10-03T23:57:51.501Z,15.70
